Time;durP1;ratioP1;P1;durP2;ratioP2;P2;SDS_P1;SDS_P2;PMS_P1;PMS_P2;Temp;Humidity;BMP_temperature;BMP_pressure;BME280_temperature;BME280_humidity;BME280_pressure;Samples;Min_cycle;Max_cycle;Signal;HPM_P1;HPM_P2
2021/12/28 00:01:20;;;;;;;20.27;10.18;;;18.90;72.30;;;;;;5090493;28;20118;-42
2021/12/28 00:03:46;;;;;;;26.40;11.40;;;18.60;71.10;;;;;;5090253;28;20531;-41
2021/12/28 00:06:14;;;;;;;23.52;10.30;;;18.60;73.20;;;;;;5074992;28;20031;-40
2021/12/28 00:08:40;;;;;;;18.33;9.10;;;18.70;72.70;;;;;;5096271;28;20012;-41
2021/12/28 00:11:07;;;;;;;21.88;10.32;;;18.70;72.10;;;;;;5093571;28;20025;-40
2021/12/28 00:13:35;;;;;;;19.08;9.82;;;18.70;71.90;;;;;;5099340;28;20027;-42
2021/12/28 00:16:23;;;;;;;20.08;8.88;;;18.60;71.80;;;;;;5087786;28;20023;-41
2021/12/28 00:18:47;;;;;;;22.00;9.27;;;18.60;71.90;;;;;;5098726;28;20021;-41
2021/12/28 00:21:12;;;;;;;19.13;9.52;;;18.60;71.80;;;;;;5087709;28;20059;-41
2021/12/28 00:23:40;;;;;;;19.83;9.40;;;18.60;71.90;;;;;;5094853;28;20061;-42
2021/12/28 00:26:09;;;;;;;16.73;9.15;;;18.60;72.10;;;;;;5095881;28;20044;-42
2021/12/28 00:28:35;;;;;;;18.85;9.80;;;18.60;72.00;;;;;;5091544;28;20530;-43
2021/12/28 00:31:00;;;;;;;18.10;8.52;;;18.60;72.00;;;;;;5067366;28;20028;-42
2021/12/28 00:33:27;;;;;;;14.15;8.15;;;18.50;72.10;;;;;;5095856;28;20141;-42
2021/12/28 00:35:53;;;;;;;17.27;8.25;;;18.50;72.10;;;;;;5088001;28;20381;-43
2021/12/28 00:38:22;;;;;;;18.00;8.25;;;18.50;72.20;;;;;;5095631;28;20082;-43
2021/12/28 00:40:59;;;;;;;18.27;8.57;;;18.50;72.30;;;;;;5089545;28;20036;-43
2021/12/28 00:43:27;;;;;;;14.43;7.63;;;18.40;72.30;;;;;;5099307;28;20500;-43
2021/12/28 00:45:53;;;;;;;16.90;7.95;;;18.40;72.30;;;;;;5076235;28;20032;-42
2021/12/28 00:48:20;;;;;;;18.13;8.32;;;18.40;72.30;;;;;;5080019;28;20635;-43
2021/12/28 00:50:46;;;;;;;16.98;8.57;;;18.40;72.30;;;;;;5077084;28;20554;-43
2021/12/28 00:53:12;;;;;;;17.42;8.25;;;18.40;72.30;;;;;;5083642;28;20131;-44
2021/12/28 00:55:38;;;;;;;17.73;8.32;;;18.40;72.40;;;;;;5110513;28;20127;-43
2021/12/28 00:58:04;;;;;;;17.73;7.50;;;18.40;72.50;;;;;;5109659;28;20026;-43
2021/12/28 01:00:33;;;;;;;14.95;8.90;;;18.30;72.40;;;;;;5096339;28;20245;-43
2021/12/28 01:03:00;;;;;;;19.02;8.30;;;18.30;72.40;;;;;;5092542;28;20096;-42
2021/12/28 01:05:27;;;;;;;15.30;7.38;;;18.30;72.50;;;;;;5102021;28;20022;-43
2021/12/28 01:07:53;;;;;;;15.52;7.25;;;18.30;72.60;;;;;;5091210;28;20423;-42
2021/12/28 01:10:23;;;;;;;15.68;7.50;;;18.30;72.50;;;;;;5099772;28;20016;-43
2021/12/28 01:12:52;;;;;;;14.65;7.10;;;18.30;72.50;;;;;;5077823;28;20024;-43
2021/12/28 01:15:18;;;;;;;13.88;7.40;;;18.30;72.60;;;;;;5098371;28;20031;-41
2021/12/28 01:17:43;;;;;;;13.57;7.05;;;18.30;72.50;;;;;;5111401;28;20024;-43
2021/12/28 01:20:11;;;;;;;17.92;7.72;;;18.20;72.50;;;;;;5097826;28;20036;-43
2021/12/28 01:22:37;;;;;;;17.73;7.80;;;18.20;72.50;;;;;;5111530;28;20027;-43
2021/12/28 01:25:04;;;;;;;16.83;7.60;;;18.20;72.40;;;;;;5099894;28;20032;-43
2021/12/28 01:27:29;;;;;;;17.60;7.13;;;18.20;73.10;;;;;;5077077;28;20033;-43
2021/12/28 01:29:55;;;;;;;13.52;6.90;;;18.20;72.50;;;;;;5086897;28;20041;-43
2021/12/28 01:32:20;;;;;;;15.85;7.25;;;18.10;72.50;;;;;;5107001;28;20168;-43
2021/12/28 01:34:46;;;;;;;12.10;6.55;;;18.20;72.60;;;;;;5103467;28;20420;-43
2021/12/28 01:37:12;;;;;;;13.38;7.05;;;18.20;72.60;;;;;;5097158;28;20028;-43
2021/12/28 01:39:38;;;;;;;14.15;6.63;;;18.20;72.50;;;;;;5091382;28;20028;-43
2021/12/28 01:42:07;;;;;;;16.30;6.63;;;18.10;73.20;;;;;;5097147;28;20016;-43
2021/12/28 01:44:33;;;;;;;12.30;6.60;;;18.10;72.50;;;;;;5106491;28;20478;-43
2021/12/28 01:46:59;;;;;;;11.77;6.82;;;18.10;72.70;;;;;;5104390;28;20534;-42
2021/12/28 01:49:25;;;;;;;12.52;6.05;;;18.10;72.70;;;;;;5110590;28;20031;-43
2021/12/28 01:51:51;;;;;;;15.90;6.97;;;18.00;72.70;;;;;;5098725;28;20019;-42
2021/12/28 01:54:17;;;;;;;15.85;7.72;;;18.00;72.80;;;;;;5089441;28;20027;-42
2021/12/28 01:56:44;;;;;;;13.48;7.28;;;18.00;72.70;;;;;;5102422;28;20452;-42
2021/12/28 01:59:12;;;;;;;14.82;6.82;;;18.00;72.70;;;;;;5089814;28;20084;-43
2021/12/28 02:01:39;;;;;;;12.18;6.25;;;18.00;72.50;;;;;;5098041;28;20039;-43
2021/12/28 02:04:16;;;;;;;13.30;6.55;;;18.00;72.70;;;;;;5099431;28;20028;-41
2021/12/28 02:06:43;;;;;;;13.90;6.22;;;18.00;72.70;;;;;;5102306;28;20031;-43
2021/12/28 02:09:09;;;;;;;15.40;6.47;;;18.00;72.70;;;;;;5089643;28;20435;-41
2021/12/28 02:11:35;;;;;;;14.68;6.97;;;18.00;72.70;;;;;;5100161;28;20026;-41
2021/12/28 02:14:02;;;;;;;13.32;6.15;;;18.00;72.70;;;;;;5091066;28;20046;-42
2021/12/28 02:16:27;;;;;;;12.60;6.40;;;18.00;72.80;;;;;;5098250;27;20020;-43
2021/12/28 02:18:53;;;;;;;14.73;6.55;;;18.00;72.70;;;;;;5086805;28;20028;-43
2021/12/28 02:21:19;;;;;;;13.23;5.50;;;17.90;72.70;;;;;;5080569;28;20034;-43
2021/12/28 02:23:45;;;;;;;13.23;6.15;;;17.90;72.70;;;;;;5102539;28;20073;-43
2021/12/28 02:26:10;;;;;;;12.57;6.10;;;17.90;72.90;;;;;;5105911;28;20099;-42
2021/12/28 02:28:36;;;;;;;14.52;7.28;;;17.90;72.80;;;;;;5100535;28;20016;-41
2021/12/28 02:31:02;;;;;;;12.60;6.03;;;17.90;72.70;;;;;;5100175;28;20028;-43
2021/12/28 02:33:28;;;;;;;13.82;6.45;;;17.80;72.70;;;;;;5099326;28;20016;-40
2021/12/28 02:35:59;;;;;;;15.38;6.70;;;17.90;72.80;;;;;;5090326;28;20474;-43
2021/12/28 02:38:25;;;;;;;13.02;6.00;;;17.90;72.80;;;;;;5095833;28;20016;-43
2021/12/28 02:40:51;;;;;;;12.55;6.07;;;17.80;72.80;;;;;;5097689;27;20450;-42
2021/12/28 02:43:18;;;;;;;9.90;5.07;;;17.90;72.60;;;;;;5101648;28;20028;-43
2021/12/28 02:45:52;;;;;;;11.10;5.68;;;;;;;;;;5088910;28;20024;-43
2021/12/28 02:48:18;;;;;;;10.38;4.93;;;;;;;;;;5101952;28;20371;-41
2021/12/28 02:50:48;;;;;;;12.23;5.28;;;;;;;;;;5088583;28;20541;-41
2021/12/28 02:53:14;;;;;;;12.05;5.80;;;;;;;;;;5091203;28;20069;-42
2021/12/28 02:55:40;;;;;;;13.27;5.97;;;;;;;;;;5095937;28;20044;-43
2021/12/28 02:58:08;;;;;;;9.98;5.32;;;;;;;;;;5094207;28;20126;-42
2021/12/28 03:00:40;;;;;;;12.60;5.43;;;;;;;;;;5089893;28;20127;-42
2021/12/28 03:03:10;;;;;;;11.13;5.82;;;;;;;;;;5095699;28;20119;-42
2021/12/28 03:05:38;;;;;;;11.70;4.95;;;;;;;;;;5088669;28;20028;-43
2021/12/28 03:08:05;;;;;;;13.77;6.28;;;;;;;;;;5093818;28;20402;-42
2021/12/28 03:10:31;;;;;;;12.10;5.60;;;;;;;;;;5104166;28;20040;-43
2021/12/28 03:12:57;;;;;;;11.25;5.35;;;;;;;;;;5103323;28;20115;-43
2021/12/28 03:15:23;;;;;;;11.63;5.32;;;;;;;;;;5094049;28;20107;-41
2021/12/28 03:17:49;;;;;;;12.48;5.45;;;;;;;;;;5090697;28;20114;-42
2021/12/28 03:20:17;;;;;;;12.00;5.63;;;;;;;;;;5098813;28;20171;-42
2021/12/28 03:22:44;;;;;;;11.18;4.82;;;;;;;;;;5089118;28;20028;-43
2021/12/28 03:25:10;;;;;;;13.65;5.93;;;;;;;;;;5099450;28;20024;-43
2021/12/28 03:27:39;;;;;;;11.35;5.13;;;;;;;;;;5088913;28;20038;-44
2021/12/28 03:30:07;;;;;;;9.15;5.72;;;;;;;;;;5094189;28;20024;-43
2021/12/28 03:32:33;;;;;;;10.70;5.05;;;;;;;;;;5108286;28;20049;-42
2021/12/28 03:34:59;;;;;;;10.02;5.55;;;;;;;;;;5100716;28;20099;-41
2021/12/28 03:37:25;;;;;;;9.95;4.70;;;;;;;;;;5088538;28;20098;-42
2021/12/28 03:39:51;;;;;;;10.88;4.22;;;;;;;;;;5101013;28;20497;-43
2021/12/28 03:42:17;;;;;;;9.85;4.40;;;;;;;;;;5087622;28;20047;-43
2021/12/28 03:44:43;;;;;;;10.68;4.70;;;;;;;;;;5099646;28;20445;-43
2021/12/28 03:47:09;;;;;;;12.88;5.15;;;;;;;;;;5089516;28;20549;-43
2021/12/28 03:49:35;;;;;;;10.43;5.55;;;;;;;;;;5089965;28;20409;-43
2021/12/28 03:52:02;;;;;;;12.65;5.28;;;;;;;;;;5103494;28;20024;-43
2021/12/28 03:54:28;;;;;;;11.32;4.97;;;;;;;;;;5094075;28;20034;-43
2021/12/28 03:56:56;;;;;;;9.43;4.43;;;;;;;;;;5094421;28;20044;-43
2021/12/28 03:59:22;;;;;;;10.10;4.25;;;;;;;;;;5091811;28;20138;-43
2021/12/28 04:01:48;;;;;;;12.27;5.97;;;;;;;;;;5096762;28;20123;-44
2021/12/28 04:04:14;;;;;;;10.75;4.15;;;;;;;;;;5091531;28;20456;-44
2021/12/28 04:06:40;;;;;;;9.85;4.40;;;;;;;;;;5085312;28;20028;-44
2021/12/28 04:09:07;;;;;;;10.35;4.82;;;;;;;;;;5107083;28;20108;-42
2021/12/28 04:11:33;;;;;;;11.13;4.55;;;;;;;;;;5096961;28;20138;-43
2021/12/28 04:14:01;;;;;;;11.23;5.57;;;;;;;;;;5107783;28;20027;-44
2021/12/28 04:16:27;;;;;;;11.90;4.85;;;;;;;;;;5091700;28;20019;-43
2021/12/28 04:18:53;;;;;;;10.68;4.13;;;;;;;;;;5111739;28;20467;-44
2021/12/28 04:21:19;;;;;;;12.20;4.88;;;;;;;;;;5098960;28;20040;-44
2021/12/28 04:23:46;;;;;;;8.90;4.45;;;;;;;;;;5112063;28;20020;-44
2021/12/28 04:26:13;;;;;;;10.65;4.25;;;;;;;;;;5108116;28;20037;-44
2021/12/28 04:28:39;;;;;;;13.13;4.93;;;;;;;;;;5092078;28;20478;-43
2021/12/28 04:31:05;;;;;;;9.85;4.82;;;;;;;;;;5087985;28;20082;-43
2021/12/28 04:33:31;;;;;;;10.35;4.13;;;;;;;;;;5105881;28;20141;-42
2021/12/28 04:35:57;;;;;;;8.68;4.63;;;;;;;;;;5107324;28;20030;-42
2021/12/28 04:38:23;;;;;;;10.23;5.07;;;;;;;;;;5112204;28;20102;-41
2021/12/28 04:40:49;;;;;;;9.32;3.90;;;;;;;;;;5104278;28;20134;-39
2021/12/28 04:43:16;;;;;;;8.23;4.38;;;;;;;;;;5099472;28;20102;-42
2021/12/28 04:45:42;;;;;;;8.55;3.50;;;;;;;;;;5092392;28;20043;-42
2021/12/28 04:48:08;;;;;;;13.23;4.63;;;;;;;;;;5111927;28;20028;-44
2021/12/28 04:50:38;;;;;;;7.88;3.97;;;;;;;;;;5110289;28;20501;-42
2021/12/28 04:53:08;;;;;;;8.98;3.80;;;;;;;;;;5099929;28;20130;-42
2021/12/28 04:55:34;;;;;;;7.35;4.28;;;;;;;;;;5109820;28;20047;-42
2021/12/28 04:58:00;;;;;;;9.45;3.95;;;;;;;;;;5099738;28;20130;-41
2021/12/28 05:00:27;;;;;;;8.18;4.65;;;;;;;;;;5108164;28;20546;-42
2021/12/28 05:02:53;;;;;;;8.65;3.75;;;;;;;;;;5103517;28;20558;-42
2021/12/28 05:05:19;;;;;;;9.05;4.05;;;;;;;;;;5090891;28;20024;-43
2021/12/28 05:07:45;;;;;;;8.30;4.10;;;;;;;;;;5102810;28;20030;-42
2021/12/28 05:10:11;;;;;;;9.63;3.90;;;;;;;;;;5089598;28;20122;-43
2021/12/28 05:12:37;;;;;;;8.93;3.92;;;;;;;;;;5100803;28;20038;-41
2021/12/28 05:15:04;;;;;;;8.45;3.55;;;;;;;;;;5090026;28;20039;-43
2021/12/28 05:17:31;;;;;;;11.90;4.85;;;;;;;;;;5091574;28;20035;-43
2021/12/28 05:19:57;;;;;;;9.88;4.05;;;;;;;;;;5093911;28;20142;-42
2021/12/28 05:22:23;;;;;;;8.25;4.38;;;;;;;;;;5096603;28;20030;-43
2021/12/28 05:24:49;;;;;;;8.32;3.70;;;;;;;;;;5097822;28;20024;-42
2021/12/28 05:27:15;;;;;;;9.55;3.78;;;;;;;;;;5083880;28;20111;-43
2021/12/28 05:29:42;;;;;;;9.10;4.60;;;;;;;;;;5085454;28;20101;-43
2021/12/28 05:32:08;;;;;;;10.10;4.40;;;;;;;;;;5083369;28;20051;-42
2021/12/28 05:34:34;;;;;;;9.60;4.32;;;;;;;;;;5090251;28;20032;-43
2021/12/28 05:37:00;;;;;;;9.13;3.78;;;;;;;;;;5083037;28;20082;-43
2021/12/28 05:39:26;;;;;;;8.77;4.13;;;;;;;;;;5082461;28;20609;-43
2021/12/28 05:41:52;;;;;;;8.60;4.15;;;;;;;;;;5077822;28;20024;-42
2021/12/28 05:44:18;;;;;;;9.93;3.97;;;;;;;;;;5090172;28;20023;-43
2021/12/28 05:46:45;;;;;;;9.27;3.65;;;;;;;;;;5078312;28;20024;-40
2021/12/28 05:49:11;;;;;;;7.38;3.40;;;;;;;;;;5087204;28;20453;-43
2021/12/28 05:51:39;;;;;;;11.35;4.47;;;;;;;;;;5079216;28;20024;-43
2021/12/28 05:54:05;;;;;;;11.02;4.28;;;;;;;;;;5084632;28;20510;-43
2021/12/28 05:56:31;;;;;;;9.40;3.75;;;;;;;;;;5080416;28;20132;-43
2021/12/28 05:58:57;;;;;;;9.00;3.63;;;;;;;;;;5084903;28;20032;-43
2021/12/28 06:01:23;;;;;;;10.02;3.53;;;;;;;;;;5085234;28;20040;-42
2021/12/28 06:03:49;;;;;;;8.93;3.60;;;;;;;;;;5089735;28;20046;-40
2021/12/28 06:06:15;;;;;;;8.70;4.07;;;;;;;;;;5080210;28;20569;-43
2021/12/28 06:08:42;;;;;;;9.13;4.05;;;;;;;;;;5083202;28;20542;-43
2021/12/28 06:11:12;;;;;;;10.20;3.80;;;;;;;;;;5080180;28;20473;-43
2021/12/28 06:13:40;;;;;;;8.25;3.55;;;;;;;;;;5082543;28;20389;-42
2021/12/28 06:16:06;;;;;;;8.32;3.53;;;;;;;;;;5079574;28;20024;-43
2021/12/28 06:18:32;;;;;;;10.00;3.42;;;;;;;;;;5081678;28;20436;-43
2021/12/28 06:20:58;;;;;;;13.00;4.05;;;;;;;;;;5087852;28;20115;-43
2021/12/28 06:23:24;;;;;;;7.60;3.13;;;;;;;;;;5079882;28;20107;-43
2021/12/28 06:25:50;;;;;;;9.82;3.38;;;;;;;;;;5082166;28;20024;-41
2021/12/28 06:28:16;;;;;;;9.70;3.17;;;;;;;;;;5079046;28;20048;-42
2021/12/28 06:30:43;;;;;;;13.77;3.72;;;;;;;;;;5090518;28;20063;-42
2021/12/28 06:33:09;;;;;;;13.18;3.42;;;;;;;;;;5080045;28;20360;-40
2021/12/28 06:35:35;;;;;;;14.32;3.78;;;;;;;;;;5084212;28;20024;-43
2021/12/28 06:38:01;;;;;;;7.90;2.97;;;;;;;;;;5078785;28;20034;-40
2021/12/28 06:40:27;;;;;;;11.88;2.97;;;;;;;;;;5087527;28;20090;-42
2021/12/28 06:42:53;;;;;;;9.77;3.03;;;;;;;;;;5083068;28;20107;-43
2021/12/28 06:45:19;;;;;;;15.00;4.07;;;;;;;;;;5084052;28;20027;-43
2021/12/28 06:47:45;;;;;;;13.73;3.83;;;;;;;;;;5078589;28;20338;-42
2021/12/28 06:50:12;;;;;;;11.55;3.47;;;;;;;;;;5087425;28;20028;-41
2021/12/28 06:52:38;;;;;;;9.48;3.22;;;;;;;;;;5079404;28;20028;-43
2021/12/28 06:55:05;;;;;;;9.23;3.20;;;;;;;;;;5081319;28;20095;-43
2021/12/28 06:57:31;;;;;;;12.20;3.20;;;;;;;;;;5076406;28;20143;-43
2021/12/28 06:59:57;;;;;;;10.85;3.30;;;;;;;;;;5082671;28;20123;-43
2021/12/28 07:02:23;;;;;;;8.30;3.17;;;;;;;;;;5083732;28;20029;-42
2021/12/28 07:04:49;;;;;;;8.65;3.22;;;;;;;;;;5080443;28;20027;-42
2021/12/28 07:07:15;;;;;;;8.02;2.97;;;;;;;;;;5078605;28;20028;-42
2021/12/28 07:09:42;;;;;;;9.25;3.53;;;;;;;;;;5079172;28;20106;-43
2021/12/28 07:12:08;;;;;;;11.80;3.10;;;;;;;;;;5091391;28;20028;-43
2021/12/28 07:14:34;;;;;;;11.43;3.75;;;;;;;;;;5080950;28;20050;-43
2021/12/28 07:17:00;;;;;;;6.55;2.60;;;;;;;;;;5082731;28;20091;-41
2021/12/28 07:19:27;;;;;;;7.50;3.17;;;;;;;;;;5081302;28;20501;-43
2021/12/28 07:21:53;;;;;;;8.88;3.15;;;;;;;;;;5080901;28;20381;-43
2021/12/28 07:24:19;;;;;;;6.53;3.15;;;;;;;;;;5080357;28;20131;-43
2021/12/28 07:26:45;;;;;;;8.93;3.55;;;;;;;;;;5084755;28;20020;-43
2021/12/28 07:29:12;;;;;;;7.95;3.03;;;;;;;;;;5078846;28;20060;-43
2021/12/28 07:31:38;;;;;;;12.52;3.47;;;;;;;;;;5087187;28;20106;-42
2021/12/28 07:34:04;;;;;;;8.15;2.78;;;;;;;;;;5075785;28;20024;-42
2021/12/28 07:36:30;;;;;;;13.38;3.22;;;;;;;;;;5079807;28;20016;-42
2021/12/28 07:38:56;;;;;;;7.38;3.03;;;;;;;;;;5079370;28;20548;-43
2021/12/28 07:41:22;;;;;;;10.30;2.92;;;;;;;;;;5079988;28;20036;-41
2021/12/28 07:43:48;;;;;;;10.02;3.00;;;;;;;;;;5099018;28;20526;-41
2021/12/28 07:46:14;;;;;;;7.03;2.80;;;;;;;;;;5088391;28;20466;-42
2021/12/28 07:48:41;;;;;;;7.32;3.10;;;;;;;;;;5090497;28;20076;-40
2021/12/28 07:51:07;;;;;;;7.78;3.60;;;;;;;;;;5076551;28;20375;-41
2021/12/28 07:53:35;;;;;;;6.85;2.88;;;;;;;;;;5086774;28;20158;-42
2021/12/28 07:56:01;;;;;;;7.57;2.63;;;;;;;;;;5079771;28;20044;-42
2021/12/28 07:58:27;;;;;;;8.75;2.70;;;;;;;;;;5092483;28;20012;-42
2021/12/28 08:00:53;;;;;;;6.03;2.90;;;;;;;;;;5082063;28;20075;-41
2021/12/28 08:03:19;;;;;;;8.80;2.72;;;;;;;;;;5085361;28;20821;-42
2021/12/28 08:05:46;;;;;;;8.30;3.13;;;;;;;;;;5079015;28;20059;-42
2021/12/28 08:08:13;;;;;;;7.78;2.63;;;;;;;;;;5090097;28;20084;-43
2021/12/28 08:10:40;;;;;;;7.05;2.45;;;;;;;;;;5084009;28;20545;-41
2021/12/28 08:13:06;;;;;;;9.48;2.90;;;;;;;;;;5085639;28;20366;-41
2021/12/28 08:15:32;;;;;;;5.18;2.38;;;;;;;;;;5082122;28;20028;-41
2021/12/28 08:17:58;;;;;;;8.00;2.88;;;;;;;;;;5093682;28;20024;-41
2021/12/28 08:20:24;;;;;;;9.32;3.15;;;;;;;;;;5100103;28;20957;-41
2021/12/28 08:22:50;;;;;;;9.27;2.35;;;;;;;;;;5095540;28;20039;-41
2021/12/28 08:25:20;;;;;;;9.60;2.45;;;;;;;;;;5091496;28;20028;-42
2021/12/28 08:27:46;;;;;;;9.32;2.65;;;;;;;;;;5077087;28;20107;-42
2021/12/28 08:30:14;;;;;;;8.00;2.55;;;;;;;;;;5102188;28;20539;-42
2021/12/28 08:32:40;;;;;;;9.27;2.58;;;;;;;;;;5088406;28;20135;-43
2021/12/28 08:35:07;;;;;;;13.43;3.05;;;;;;;;;;5099576;28;20016;-42
2021/12/28 08:37:33;;;;;;;7.78;2.25;;;;;;;;;;5111270;28;20101;-42
2021/12/28 08:39:59;;;;;;;13.40;3.88;;;;;;;;;;5095564;28;20136;-42
2021/12/28 08:42:25;;;;;;;7.20;2.42;;;;;;;;;;5077855;28;20424;-42
2021/12/28 08:44:51;;;;;;;7.38;2.15;;;;;;;;;;5100138;28;20046;-42
2021/12/28 08:47:18;;;;;;;7.63;2.40;;;;;;;;;;5090834;28;20103;-44
2021/12/28 08:49:44;;;;;;;9.20;2.60;;;;;;;;;;5095354;28;20020;-42
2021/12/28 08:52:10;;;;;;;11.75;2.85;;;;;;;;;;5105916;28;20537;-43
2021/12/28 08:54:36;;;;;;;6.20;2.10;;;;;;;;;;5090061;28;20390;-43
2021/12/28 08:57:03;;;;;;;10.70;2.05;;;;;;;;;;5100019;28;20067;-42
2021/12/28 08:59:29;;;;;;;9.23;2.75;;;;;;;;;;5093695;28;20097;-42
2021/12/28 09:01:56;;;;;;;9.40;3.00;;;;;;;;;;5102865;28;20544;-42
2021/12/28 09:04:23;;;;;;;6.65;2.25;;;;;;;;;;5100463;28;20358;-41
2021/12/28 09:06:49;;;;;;;8.77;2.97;;;;;;;;;;5100291;28;20028;-39
2021/12/28 09:09:15;;;;;;;10.00;2.92;;;;;;;;;;5092136;28;20098;-40
2021/12/28 09:11:44;;;;;;;9.05;2.33;;;;;;;;;;5098314;28;20572;-42
2021/12/28 09:14:10;;;;;;;7.75;1.92;;;;;;;;;;5110412;28;20406;-40
2021/12/28 09:16:36;;;;;;;6.88;2.22;;;;;;;;;;5101674;28;20044;-41
2021/12/28 09:19:03;;;;;;;9.25;2.28;;;;;;;;;;5072705;28;20104;-40
2021/12/28 09:21:29;;;;;;;7.20;1.83;;;;;;;;;;5106693;28;20104;-42
2021/12/28 09:23:55;;;;;;;6.10;1.73;;;;;;;;;;5090215;28;20032;-41
2021/12/28 09:26:21;;;;;;;5.43;1.70;;;;;;;;;;5078869;28;20040;-40
2021/12/28 09:28:47;;;;;;;7.45;2.15;;;;;;;;;;5110394;28;20095;-40
2021/12/28 09:31:14;;;;;;;7.18;1.90;;;;;;;;;;5088827;28;20124;-42
2021/12/28 09:33:40;;;;;;;9.73;2.40;;;;;;;;;;5106654;28;20028;-41
2021/12/28 09:36:09;;;;;;;7.18;2.17;;;;;;;;;;5106687;28;20050;-42
2021/12/28 09:38:35;;;;;;;9.00;1.83;;;;;;;;;;5094205;28;20090;-42
2021/12/28 09:41:02;;;;;;;9.43;2.45;;;;;;;;;;5091571;28;20412;-42
2021/12/28 09:43:28;;;;;;;6.85;2.20;;;;;;;;;;5088478;28;20066;-42
2021/12/28 09:45:54;;;;;;;8.70;1.92;;;;;;;;;;5093468;28;20020;-42
2021/12/28 09:48:20;;;;;;;6.07;1.75;;;;;;;;;;5098635;28;20118;-42
2021/12/28 09:50:46;;;;;;;5.32;1.90;;;;;;;;;;5089748;28;20020;-40
2021/12/28 09:53:13;;;;;;;8.05;2.22;;;;;;;;;;5107488;28;20020;-42
2021/12/28 09:55:39;;;;;;;6.90;1.88;;;;;;;;;;5108349;28;20027;-42
2021/12/28 09:58:05;;;;;;;5.55;1.90;;;;;;;;;;5098802;28;20062;-42
2021/12/28 10:00:32;;;;;;;7.35;1.88;;;;;;;;;;5109622;28;20039;-42
2021/12/28 10:02:57;;;;;;;4.22;1.50;;;;;;;;;;5095413;28;20031;-42
2021/12/28 10:05:25;;;;;;;5.85;2.17;;;;;;;;;;5089836;28;20027;-43
2021/12/28 10:07:56;;;;;;;12.57;2.53;;;;;;;;;;5096480;28;20072;-42
2021/12/28 10:10:23;;;;;;;8.88;1.60;;;;;;;;;;5109917;28;20088;-42
2021/12/28 10:12:54;;;;;;;6.72;1.70;;;;;;;;;;5097285;28;20020;-42
2021/12/28 10:15:21;;;;;;;4.18;1.48;;;;;;;;;;5068787;28;20482;-42
2021/12/28 10:17:49;;;;;;;4.93;1.75;;;;;;;;;;5094871;28;20529;-42
2021/12/28 10:20:26;;;;;;;10.55;2.25;;;;;;;;;;5090106;28;20124;-41
2021/12/28 10:22:58;;;;;;;5.75;1.70;;;;;;;;;;5098989;28;20106;-42
2021/12/28 10:25:27;;;;;;;5.10;1.85;;;;;;;;;;5083688;28;20032;-42
2021/12/28 10:27:57;;;;;;;5.68;1.27;;;;;;;;;;5094231;28;20050;-42
2021/12/28 10:30:24;;;;;;;5.80;1.65;;;;;;;;;;5092156;28;20319;-42
2021/12/28 10:32:52;;;;;;;3.60;1.45;;;;;;;;;;5095231;28;20023;-42
2021/12/28 10:35:20;;;;;;;5.82;1.27;;;;;;;;;;5108891;28;20031;-40
2021/12/28 10:37:48;;;;;;;7.75;1.55;;;;;;;;;;5101297;28;20031;-42
2021/12/28 10:40:20;;;;;;;5.07;1.65;;;;;;;;;;5082620;28;20127;-45
2021/12/28 10:43:07;;;;;;;6.88;1.20;;;;;;;;;;5046340;28;20293;-42
2021/12/28 10:45:49;;;;;;;5.10;1.60;;;;;;;;;;5102799;28;20100;-42
2021/12/28 10:48:20;;;;;;;8.75;1.60;;;;;;;;;;5093848;28;20426;-42
2021/12/28 10:50:46;;;;;;;3.70;1.30;;;;;;;;;;5087352;28;20111;-40
2021/12/28 10:53:23;;;;;;;8.90;1.20;;;;;;;;;;5081023;28;20028;-42
2021/12/28 10:55:51;;;;;;;10.32;1.45;;;;;;;;;;5102010;28;20067;-42
2021/12/28 10:58:21;;;;;;;5.55;1.17;;;;;;;;;;5092672;28;20469;-42
2021/12/28 11:00:49;;;;;;;4.32;1.88;;;;;;;;;;5099845;28;20047;-42
2021/12/28 11:03:15;;;;;;;5.55;1.27;;;;;;;;;;5104289;28;20028;-43
2021/12/28 11:05:41;;;;;;;6.07;1.30;;;;;;;;;;5098918;28;20481;-41
2021/12/28 11:08:08;;;;;;;9.77;1.35;;;;;;;;;;5089073;28;20130;-43
2021/12/28 11:10:35;;;;;;;5.70;1.10;;;;;;;;;;5088365;28;20020;-43
2021/12/28 11:13:01;;;;;;;4.63;1.15;;;;;;;;;;5088655;28;20115;-43
2021/12/28 11:15:32;;;;;;;5.22;1.20;;;;;;;;;;5100111;28;20042;-42
2021/12/28 11:17:58;;;;;;;5.10;1.30;;;;;;;;;;5087817;28;20189;-42
2021/12/28 11:20:30;;;;;;;6.60;1.10;;;;;;;;;;5085216;28;20791;-40
2021/12/28 11:23:09;;;;;;;4.70;1.15;;;;;;;;;;5089382;28;20103;-42
2021/12/28 11:25:35;;;;;;;3.25;1.13;;;;;;;;;;5094039;28;20062;-41
2021/12/28 11:28:20;;;;;;;7.38;1.70;;;;;;;;;;5108501;28;20285;-43
2021/12/28 11:31:01;;;;;;;6.40;1.40;;;;;;;;;;5095514;28;20028;-43
2021/12/28 11:33:27;;;;;;;;;;;;;;;;;;5086095;28;20029;-42
2021/12/28 11:35:54;;;;;;;4.97;1.00;;;;;;;;;;5083176;28;19965;-44
2021/12/28 11:38:20;;;;;;;6.57;1.23;;;;;;;;;;5080339;28;20108;-41
2021/12/28 11:40:46;;;;;;;4.60;1.23;;;;;;;;;;5079553;28;20063;-42
2021/12/28 11:43:13;;;;;;;7.90;1.30;;;;;;;;;;5072952;28;20103;-41
2021/12/28 11:45:39;;;;;;;6.28;1.00;;;;;;;;;;5072224;28;20032;-42
2021/12/28 11:48:05;;;;;;;6.20;1.02;;;;;;;;;;5072148;28;20115;-43
2021/12/28 11:50:32;;;;;;;6.97;1.08;;;;;;;;;;5072110;28;20095;-42
2021/12/28 11:52:59;;;;;;;6.38;1.23;;;;;;;;;;5072902;28;20356;-42
2021/12/28 11:55:25;;;;;;;5.28;1.45;;;;;;;;;;5072082;28;20529;-43
2021/12/28 11:57:52;;;;;;;5.65;1.27;;;;;;;;;;5066412;28;20107;-41
2021/12/28 12:00:20;;;;;;;3.38;0.82;;;;;;;;;;5076218;28;20052;-41
2021/12/28 12:02:51;;;;;;;3.85;1.00;;;;;;;;;;5071683;28;20059;-43
2021/12/28 12:05:23;;;;;;;9.27;1.63;;;;;;;;;;5070601;28;20032;-43
2021/12/28 12:08:06;;;;;;;6.65;1.13;;;;;;;;;;5071512;28;20143;-42
2021/12/28 12:10:34;;;;;;;5.20;1.10;;;;;;;;;;5070448;28;20115;-42
2021/12/28 12:13:15;;;;;;;2.95;1.10;;;;;;;;;;5071903;28;20024;-42
2021/12/28 12:15:42;;;;;;;9.02;1.80;;;;;;;;;;5070920;28;20052;-43
2021/12/28 12:18:10;;;;;;;4.43;1.30;;;;;;;;;;5074716;28;20017;-42
2021/12/28 12:20:37;;;;;;;4.20;1.08;;;;;;;;;;5071563;28;20498;-42
2021/12/28 12:23:08;;;;;;;7.70;1.23;;;;;;;;;;5073289;28;20510;-42
2021/12/28 12:25:51;;;;;;;7.00;1.40;;;;;;;;;;5070104;28;20024;-42
2021/12/28 12:28:31;;;;;;;7.60;1.52;;;;;;;;;;5068711;28;20048;-43
2021/12/28 12:30:58;;;;;;;5.50;1.17;;;;;;;;;;5070562;28;20096;-43
2021/12/28 12:33:33;;;;;;;6.38;0.90;;;;;;;;;;5070070;28;20555;-42
2021/12/28 12:36:00;;;;;;;10.02;1.20;;;;;;;;;;5070352;28;20123;-43
2021/12/28 12:38:26;;;;;;;8.90;1.40;;;;;;;;;;5076430;28;20060;-41
2021/12/28 12:41:12;;;;;;;5.60;1.10;;;;;;;;;;5074353;28;20056;-41
2021/12/28 12:43:38;;;;;;;2.75;0.80;;;;;;;;;;5075360;28;20052;-41
2021/12/28 12:46:05;;;;;;;5.00;0.85;;;;;;;;;;5079541;28;20358;-41
2021/12/28 12:48:37;;;;;;;6.03;1.35;;;;;;;;;;5076697;28;20082;-41
2021/12/28 12:51:21;;;;;;;8.73;1.30;;;;;;;;;;5070491;28;20036;-41
2021/12/28 12:53:50;;;;;;;5.93;1.00;;;;;;;;;;5073370;28;20059;-44
2021/12/28 12:56:18;;;;;;;3.72;0.98;;;;;;;;;;5073097;28;20120;-32
2021/12/28 12:58:46;;;;;;;7.38;1.17;;;;;;;;;;5074898;28;20092;-32
2021/12/28 13:01:27;;;;;;;2.35;0.90;;;;;;;;;;5073111;28;20060;-33
2021/12/28 13:03:58;;;;;;;5.07;1.00;;;;;;;;;;5076610;28;20040;-33
2021/12/28 13:06:42;;;;;;;3.95;1.00;;;;;;;;;;5073039;28;20561;-33
2021/12/28 13:09:08;;;;;;;9.15;1.52;;;;;;;;;;5091827;28;20022;-34
2021/12/28 13:11:34;;;;;;;4.95;0.88;;;;;;;;;;5091524;28;20059;-34
2021/12/28 13:14:00;;;;;;;4.75;1.20;;;;;;;;;;5087888;28;20183;-33
2021/12/28 13:16:26;;;;;;;3.58;1.00;;;;;;;;;;5083652;28;20119;-34
2021/12/28 13:19:06;;;;;;;2.80;0.90;;;;;;;;;;5095864;28;20015;-34
2021/12/28 13:21:32;;;;;;;3.17;0.82;;;;;;;;;;5069395;28;20044;-34
2021/12/28 13:24:08;;;;;;;7.50;1.17;;;;;;;;;;5095057;28;20171;-34
2021/12/28 13:26:44;;;;;;;4.13;1.25;;;;;;;;;;5091462;28;20046;-34
2021/12/28 13:29:10;;;;;;;6.35;1.30;;;;;;;;;;5093176;28;20031;-34
2021/12/28 13:31:36;;;;;;;6.32;1.10;;;;;;;;;;5084092;28;20033;-33
2021/12/28 13:34:02;;;;;;;12.43;1.25;;;;;;;;;;5093959;28;20077;-33
2021/12/28 13:36:29;;;;;;;6.88;1.00;;;;;;;;;;5091721;28;20084;-34
2021/12/28 13:39:08;;;;;;;3.83;0.95;;;;;;;;;;5095631;28;20020;-33
2021/12/28 13:41:34;;;;;;;7.28;1.50;;;;;;;;;;5090146;28;20043;-34
2021/12/28 13:44:04;;;;;;;7.85;1.35;;;;;;;;;;5088403;28;20139;-33
2021/12/28 13:46:30;;;;;;;8.18;1.30;;;;;;;;;;5080742;28;20101;-34
2021/12/28 13:48:59;;;;;;;7.35;1.30;;;;;;;;;;5087081;28;20028;-33
2021/12/28 13:51:26;;;;;;;6.00;1.13;;;;;;;;;;5096219;28;20032;-33
2021/12/28 13:54:04;;;;;;;6.10;1.20;;;;;;;;;;5082546;28;20020;-33
2021/12/28 13:56:35;;;;;;;6.05;1.27;;;;;;;;;;5099440;28;20054;-32
2021/12/28 13:59:01;;;;;;;5.45;0.98;;;;;;;;;;5091590;28;20107;-32
2021/12/28 14:01:29;;;;;;;6.20;0.90;;;;;;;;;;5097007;28;20206;-33
2021/12/28 14:03:57;;;;;;;8.68;1.67;;;;;;;;;;5101993;28;20134;-32
2021/12/28 14:06:24;;;;;;;6.63;1.90;;;;;;;;;;5098096;28;20866;-33
2021/12/28 14:08:50;;;;;;;5.40;0.80;;;;;;;;;;5109263;28;20108;-33
2021/12/28 14:11:29;;;;;;;4.47;0.90;;;;;;;;;;5079145;28;20052;-34
2021/12/28 14:13:55;;;;;;;5.93;1.00;;;;;;;;;;5075697;28;20032;-33
2021/12/28 14:16:21;;;;;;;6.65;1.55;;;;;;;;;;5084900;28;20103;-33